THY222 UZTT-LTFM
Flight info
| Callsign | THY222 |
|---|---|
| Flight time | N/A |
| Altitude | 36000 |
| Route | DIBAD2C DIBAD N193 OGOLI T898 DARVA/N0478F360 B476 IZGAR/N0478F380 B476 METKA L88 NIJAT N644 BADIR DCT BAGEM DCT AGISO DCT LU N37 SARPI UM10 HAKAN UN644 GUMRU/N0451F280 T315 NUGBA |
| Aircraft | B77W/H-SDE1E2E3FGHIJ2J3J4J5M1RWXY/LB1D1 |
Departure
| Time | 2026-04-28 13:00 |
|---|---|
| Airport | Tashkent International Airport (UZTT) |
Arrival
| Time | N/A |
|---|---|
| Airport | İstanbul Airport (LTFM) |
| Time | Latitude | Longitude | Altitude | Speed | Heading |
|---|---|---|---|---|---|
| 2026-04-28 12:05 | 41.26209 | 69.27314 | 1427 ft | 0 kts | 81° |
| 2026-04-28 12:47 | 41.26209 | 69.27313 | 1427 ft | 0 kts | 81° |
| 2026-04-28 12:48 | 41.26208 | 69.27303 | 1427 ft | 2 kts | 88° |
| 2026-04-28 12:48 | 41.26206 | 69.27284 | 1427 ft | 2 kts | 70° |
| 2026-04-28 12:48 | 41.26200 | 69.27266 | 1427 ft | 2 kts | 61° |
| 2026-04-28 12:49 | 41.26192 | 69.27249 | 1427 ft | 2 kts | 54° |
| 2026-04-28 12:49 | 41.26183 | 69.27234 | 1427 ft | 2 kts | 46° |
| 2026-04-28 12:49 | 41.26172 | 69.27220 | 1427 ft | 2 kts | 39° |
| 2026-04-28 12:49 | 41.26160 | 69.27209 | 1427 ft | 2 kts | 35° |
| 2026-04-28 12:50 | 41.26148 | 69.27196 | 1427 ft | 2 kts | 49° |
| 2026-04-28 12:50 | 41.26141 | 69.27180 | 1427 ft | 2 kts | 78° |
| 2026-04-28 12:50 | 41.26141 | 69.27161 | 1427 ft | 2 kts | 101° |
| 2026-04-28 12:50 | 41.26146 | 69.27143 | 1427 ft | 2 kts | 125° |
| 2026-04-28 12:51 | 41.26156 | 69.27129 | 1427 ft | 2 kts | 142° |
| 2026-04-28 12:51 | 41.26161 | 69.27125 | 1427 ft | 0 kts | 142° |
| 2026-04-28 12:51 | 41.26160 | 69.27125 | 1427 ft | 0 kts | 142° |
| 2026-04-28 12:53 | 41.26138 | 69.27151 | 1427 ft | 6 kts | 138° |
| 2026-04-28 12:54 | 41.26094 | 69.27203 | 1427 ft | 10 kts | 138° |
| 2026-04-28 12:54 | 41.26074 | 69.27285 | 1427 ft | 11 kts | 89° |
| 2026-04-28 12:54 | 41.26083 | 69.27403 | 1427 ft | 16 kts | 82° |
| 2026-04-28 12:54 | 41.26103 | 69.27589 | 1427 ft | 23 kts | 81° |
| 2026-04-28 12:55 | 41.26128 | 69.27805 | 1427 ft | 22 kts | 81° |
| 2026-04-28 12:55 | 41.26150 | 69.28011 | 1427 ft | 21 kts | 82° |
| 2026-04-28 12:55 | 41.26172 | 69.28201 | 1428 ft | 19 kts | 81° |
| 2026-04-28 12:55 | 41.26190 | 69.28372 | 1428 ft | 17 kts | 82° |
| 2026-04-28 12:56 | 41.26188 | 69.28526 | 1428 ft | 15 kts | 93° |
| 2026-04-28 12:56 | 41.26181 | 69.28665 | 1428 ft | 14 kts | 92° |
| 2026-04-28 12:56 | 41.26183 | 69.28791 | 1428 ft | 12 kts | 87° |
| 2026-04-28 12:56 | 41.26188 | 69.28905 | 1428 ft | 11 kts | 86° |
| 2026-04-28 12:57 | 41.26193 | 69.29073 | 1428 ft | 27 kts | 87° |
| 2026-04-28 12:57 | 41.26204 | 69.29330 | 1428 ft | 22 kts | 87° |
| 2026-04-28 12:57 | 41.26211 | 69.29528 | 1428 ft | 22 kts | 87° |
| 2026-04-28 12:57 | 41.26221 | 69.29769 | 1428 ft | 18 kts | 86° |
| 2026-04-28 12:58 | 41.26226 | 69.29903 | 1429 ft | 7 kts | 86° |
| 2026-04-28 12:58 | 41.26221 | 69.29966 | 1429 ft | 6 kts | 111° |
| 2026-04-28 12:58 | 41.26200 | 69.30003 | 1429 ft | 4 kts | 134° |
| 2026-04-28 12:58 | 41.26178 | 69.30030 | 1429 ft | 4 kts | 141° |
| 2026-04-28 12:59 | 41.26151 | 69.30058 | 1429 ft | 9 kts | 142° |
| 2026-04-28 12:59 | 41.26088 | 69.30092 | 1429 ft | 9 kts | 198° |
| 2026-04-28 12:59 | 41.26057 | 69.30034 | 1429 ft | 0 kts | 261° |
| 2026-04-28 12:59 | 41.26057 | 69.30033 | 1429 ft | 0 kts | 261° |
| 2026-04-28 13:00 | 41.26054 | 69.30010 | 1429 ft | 16 kts | 261° |
| 2026-04-28 13:00 | 41.25989 | 69.29436 | 1428 ft | 108 kts | 262° |
| 2026-04-28 13:00 | 41.25840 | 69.28085 | 1490 ft | 180 kts | 264° |
| 2026-04-28 13:00 | 41.25657 | 69.26399 | 2316 ft | 192 kts | 264° |
| 2026-04-28 13:01 | 41.25469 | 69.24683 | 3248 ft | 191 kts | 264° |
| 2026-04-28 13:01 | 41.25270 | 69.22895 | 3827 ft | 201 kts | 264° |
| 2026-04-28 13:01 | 41.25070 | 69.20991 | 4294 ft | 219 kts | 264° |
| 2026-04-28 13:01 | 41.24848 | 69.18943 | 4854 ft | 234 kts | 264° |
| 2026-04-28 13:02 | 41.24589 | 69.16779 | 5635 ft | 240 kts | 262° |
| 2026-04-28 13:02 | 41.24330 | 69.14591 | 6443 ft | 246 kts | 263° |
| 2026-04-28 13:02 | 41.24094 | 69.12334 | 7292 ft | 250 kts | 263° |
| 2026-04-28 13:02 | 41.23850 | 69.10081 | 8192 ft | 250 kts | 263° |
| 2026-04-28 13:03 | 41.23604 | 69.07832 | 9045 ft | 252 kts | 263° |
| 2026-04-28 13:03 | 41.23332 | 69.05441 | 9532 ft | 271 kts | 262° |
| 2026-04-28 13:03 | 41.23046 | 69.02926 | 10123 ft | 286 kts | 262° |
| 2026-04-28 13:03 | 41.22734 | 69.00252 | 10753 ft | 300 kts | 262° |
| 2026-04-28 13:04 | 41.22404 | 68.97454 | 11330 ft | 316 kts | 262° |
| 2026-04-28 13:04 | 41.22059 | 68.94508 | 11923 ft | 332 kts | 262° |
| 2026-04-28 13:04 | 41.21701 | 68.91442 | 12545 ft | 346 kts | 262° |
| 2026-04-28 13:04 | 41.21343 | 68.88245 | 13000 ft | 365 kts | 264° |
| 2026-04-28 13:05 | 41.21309 | 68.84782 | 13533 ft | 381 kts | 275° |
| 2026-04-28 13:05 | 41.21572 | 68.81251 | 14232 ft | 391 kts | 276° |
| 2026-04-28 13:05 | 41.21865 | 68.77652 | 15098 ft | 397 kts | 276° |
| 2026-04-28 13:05 | 41.22158 | 68.74039 | 15961 ft | 402 kts | 276° |
| 2026-04-28 13:06 | 41.22456 | 68.70329 | 16797 ft | 407 kts | 276° |
| 2026-04-28 13:06 | 41.22754 | 68.66607 | 17588 ft | 413 kts | 276° |
| 2026-04-28 13:06 | 41.23056 | 68.62794 | 18414 ft | 417 kts | 276° |
| 2026-04-28 13:06 | 41.23358 | 68.58971 | 19255 ft | 421 kts | 276° |
| 2026-04-28 13:07 | 41.23662 | 68.55113 | 20076 ft | 425 kts | 276° |
| 2026-04-28 13:07 | 41.23965 | 68.51246 | 20859 ft | 429 kts | 276° |
| 2026-04-28 13:07 | 41.24276 | 68.47247 | 21640 ft | 433 kts | 276° |
| 2026-04-28 13:07 | 41.24583 | 68.43276 | 22388 ft | 437 kts | 276° |
| 2026-04-28 13:08 | 41.24891 | 68.39293 | 23134 ft | 440 kts | 276° |
| 2026-04-28 13:08 | 41.25201 | 68.35254 | 23887 ft | 442 kts | 276° |
| 2026-04-28 13:08 | 41.25509 | 68.31220 | 24568 ft | 446 kts | 275° |
| 2026-04-28 13:08 | 41.25824 | 68.27076 | 25207 ft | 451 kts | 275° |
| 2026-04-28 13:09 | 41.26136 | 68.22961 | 25833 ft | 455 kts | 275° |
| 2026-04-28 13:09 | 41.26453 | 68.18749 | 26455 ft | 459 kts | 275° |
| 2026-04-28 13:09 | 41.26768 | 68.14545 | 27105 ft | 462 kts | 275° |
| 2026-04-28 13:09 | 41.27083 | 68.10313 | 27729 ft | 466 kts | 276° |
| 2026-04-28 13:10 | 41.27399 | 68.06046 | 28327 ft | 470 kts | 276° |
| 2026-04-28 13:10 | 41.27721 | 68.01691 | 28933 ft | 474 kts | 276° |
| 2026-04-28 13:10 | 41.28037 | 67.97395 | 29642 ft | 474 kts | 276° |
| 2026-04-28 13:10 | 41.28402 | 67.93020 | 30523 ft | 471 kts | 279° |
| 2026-04-28 13:11 | 41.29015 | 67.88831 | 31428 ft | 466 kts | 281° |
| 2026-04-28 13:11 | 41.29675 | 67.84633 | 32228 ft | 463 kts | 281° |
| 2026-04-28 13:11 | 41.30324 | 67.80499 | 32894 ft | 461 kts | 281° |
| 2026-04-28 13:11 | 41.30978 | 67.76317 | 33490 ft | 461 kts | 281° |
| 2026-04-28 13:12 | 41.31622 | 67.72180 | 34069 ft | 459 kts | 281° |
| 2026-04-28 13:12 | 41.32261 | 67.68060 | 34599 ft | 457 kts | 281° |
| 2026-04-28 13:12 | 41.32902 | 67.63913 | 35138 ft | 454 kts | 281° |
| 2026-04-28 13:12 | 41.33539 | 67.59776 | 35604 ft | 452 kts | 281° |
| 2026-04-28 13:13 | 41.34164 | 67.55709 | 35886 ft | 455 kts | 281° |
| 2026-04-28 13:13 | 41.35439 | 67.47374 | 35927 ft | 452 kts | 281° |
| 2026-04-28 13:14 | 41.36676 | 67.39244 | 35928 ft | 452 kts | 281° |
| 2026-04-28 13:14 | 41.37925 | 67.30994 | 35936 ft | 452 kts | 280° |
| 2026-04-28 13:15 | 41.39153 | 67.22839 | 35942 ft | 451 kts | 280° |
| 2026-04-28 13:15 | 41.40379 | 67.14654 | 35935 ft | 451 kts | 280° |
| 2026-04-28 13:16 | 41.41593 | 67.06506 | 35937 ft | 452 kts | 281° |
| 2026-04-28 13:16 | 41.42809 | 66.98312 | 35944 ft | 451 kts | 281° |
| 2026-04-28 13:17 | 41.44015 | 66.90131 | 35936 ft | 451 kts | 280° |
| 2026-04-28 13:17 | 41.45213 | 66.81971 | 35930 ft | 451 kts | 280° |
| 2026-04-28 13:18 | 41.46410 | 66.73770 | 35933 ft | 451 kts | 280° |
| 2026-04-28 13:18 | 41.47601 | 66.65567 | 35937 ft | 452 kts | 280° |
| 2026-04-28 13:19 | 41.48267 | 66.57290 | 35928 ft | 451 kts | 271° |
| 2026-04-28 13:19 | 41.48304 | 66.48932 | 35931 ft | 451 kts | 270° |
| 2026-04-28 13:20 | 41.48325 | 66.40614 | 35928 ft | 451 kts | 270° |
| 2026-04-28 13:20 | 41.48338 | 66.32226 | 35934 ft | 450 kts | 270° |
| 2026-04-28 13:21 | 41.48343 | 66.23897 | 35928 ft | 451 kts | 270° |
| 2026-04-28 13:21 | 41.48342 | 66.15583 | 35934 ft | 450 kts | 270° |
| 2026-04-28 13:22 | 41.48336 | 66.07218 | 35946 ft | 450 kts | 270° |
| 2026-04-28 13:22 | 41.48322 | 65.98913 | 35943 ft | 451 kts | 269° |
| 2026-04-28 13:23 | 41.48303 | 65.90546 | 35950 ft | 450 kts | 269° |
| 2026-04-28 13:23 | 41.48278 | 65.82228 | 35951 ft | 450 kts | 269° |
| 2026-04-28 13:24 | 41.48224 | 65.73902 | 35948 ft | 449 kts | 269° |
| 2026-04-28 13:24 | 41.48130 | 65.65601 | 35952 ft | 449 kts | 269° |
| 2026-04-28 13:25 | 41.48031 | 65.57270 | 35946 ft | 450 kts | 269° |
| 2026-04-28 13:25 | 41.47929 | 65.49007 | 35953 ft | 451 kts | 269° |
| 2026-04-28 13:26 | 41.47821 | 65.40676 | 35948 ft | 449 kts | 269° |
| 2026-04-28 13:26 | 41.47707 | 65.32372 | 35956 ft | 448 kts | 268° |
| 2026-04-28 13:27 | 41.47588 | 65.24089 | 35953 ft | 448 kts | 269° |
| 2026-04-28 13:27 | 41.47463 | 65.15778 | 35951 ft | 448 kts | 268° |
| 2026-04-28 13:28 | 41.47358 | 65.08877 | 35946 ft | 447 kts | 269° |